Terminal Aerodrome Forecast
Issued by NWS

Home | Current Version | Previous Version | Text Only | Print | Product List | Glossary On
Versions: 1 2 3 4 5 6 7 8 9 10 11 12 13 14 15
000
FTAK31 PAFA 142338
TAFAQT
TAF
PAQT 142338Z 1500/1524 05018KT 1SM -SN BR VV017
     FM150300 06019KT 1/2SM SN BLSN OVC007
     FM151100 05019KT 1 1/2SM -SN BLSN OVC015=

USA.gov is the U.S. government's official web portal to all federal, state and local government web resources and services.